createdAt,value
2024-02-15T05:09:27.717Z,22.13
2024-02-15T05:12:30.797Z,21.17
2024-02-15T05:15:34.150Z,21.00
2024-02-15T05:18:36.875Z,17.55
2024-02-15T05:21:39.392Z,17.50
2024-02-15T05:24:41.793Z,13.65
2024-02-15T05:27:45.410Z,17.12
2024-02-15T05:30:47.836Z,13.65
2024-02-15T05:33:54.740Z,14.07
2024-02-15T05:36:57.336Z,31.33
2024-02-15T05:39:59.471Z,29.27
2024-02-15T05:43:03.281Z,28.95
2024-02-15T05:46:07.700Z,32.50
2024-02-15T05:49:16.405Z,28.83
2024-02-15T05:52:19.562Z,40.42
2024-02-15T05:55:22.127Z,38.28
2024-02-15T05:58:24.939Z,35.83
2024-02-15T06:01:27.437Z,33.25
2024-02-15T06:04:31.009Z,35.10
2024-02-15T06:07:33.289Z,41.22
2024-02-15T06:10:35.754Z,39.92
2024-02-15T06:13:37.901Z,39.88
2024-02-15T06:16:46.144Z,40.28
2024-02-15T06:19:48.370Z,36.72
2024-02-15T06:22:53.019Z,37.25
2024-02-15T06:26:01.948Z,39.83
2024-02-15T06:29:22.822Z,36.60
2024-02-15T06:32:43.919Z,32.63
2024-02-15T06:36:04.946Z,30.25
2024-02-15T06:39:25.737Z,41.85
2024-02-15T06:42:30.865Z,29.77
2024-02-15T06:45:33.296Z,42.58
2024-02-15T06:48:36.125Z,36.47
2024-02-15T06:51:38.664Z,36.15
2024-02-15T06:54:46.602Z,28.30
2024-02-15T06:57:52.000Z,32.08
2024-02-15T07:00:56.142Z,34.17
2024-02-15T07:03:59.816Z,38.03
2024-02-15T07:07:07.669Z,36.00
2024-02-15T07:10:15.347Z,31.23
2024-02-15T07:13:33.255Z,34.50
2024-02-15T07:19:50.822Z,34.80
2024-02-15T07:22:57.263Z,32.35
2024-02-15T07:26:01.915Z,33.85
2024-02-15T07:29:12.391Z,33.28
2024-02-15T07:32:19.672Z,35.22
2024-02-15T07:35:27.510Z,35.03
2024-02-15T07:38:37.071Z,37.33
2024-02-15T07:41:45.354Z,31.83
2024-02-15T07:44:51.354Z,38.70
2024-02-15T07:47:55.175Z,33.00
2024-02-15T07:51:00.580Z,34.53
2024-02-15T07:54:06.538Z,32.60
2024-02-15T07:57:12.665Z,37.45
2024-02-15T08:00:18.200Z,34.80
2024-02-15T08:03:22.194Z,36.88
2024-02-15T08:06:30.129Z,31.25
2024-02-15T08:09:34.050Z,32.03
2024-02-15T08:12:37.127Z,34.85
2024-02-15T08:15:41.323Z,32.80
2024-02-15T08:18:48.320Z,31.83
2024-02-15T08:21:53.043Z,37.38
2024-02-15T08:24:59.963Z,33.90
2024-02-15T08:28:06.972Z,33.42
2024-02-15T08:31:12.361Z,37.53
2024-02-15T08:34:15.860Z,36.20
2024-02-15T08:37:19.605Z,30.80
2024-02-15T08:40:26.684Z,31.90
2024-02-15T08:43:29.228Z,34.28
2024-02-15T08:46:32.314Z,38.90
2024-02-15T08:49:36.146Z,34.13
2024-02-15T08:52:40.414Z,38.28
2024-02-15T08:55:43.166Z,37.35
2024-02-15T08:58:46.361Z,38.00
2024-02-15T09:01:48.500Z,41.78
2024-02-15T09:04:51.064Z,39.78
2024-02-15T09:07:53.347Z,38.20
2024-02-15T09:10:55.881Z,42.95
2024-02-15T09:13:58.122Z,42.53
2024-02-15T09:17:10.934Z,36.10
2024-02-15T09:20:22.534Z,38.33
2024-02-15T09:23:25.239Z,41.47
2024-02-15T09:26:29.053Z,36.28
2024-02-15T09:29:33.632Z,40.47
2024-02-15T09:32:37.061Z,45.03
2024-02-15T09:35:39.885Z,38.88
2024-02-15T09:38:44.719Z,39.90
2024-02-15T09:41:47.305Z,43.70
2024-02-15T09:44:49.484Z,50.58
2024-02-15T09:47:54.649Z,36.25
2024-02-15T09:50:59.787Z,43.38
2024-02-15T09:54:03.042Z,40.58
2024-02-15T09:57:06.956Z,38.97
2024-02-15T10:00:14.586Z,42.35
2024-02-15T10:03:24.331Z,35.55
2024-02-15T10:06:28.414Z,37.63
2024-02-15T10:09:32.008Z,32.42
2024-02-15T10:12:40.329Z,31.92
2024-02-15T10:15:42.789Z,32.95
2024-02-15T10:18:46.077Z,36.83
2024-02-15T10:21:49.853Z,37.40
2024-02-15T10:24:52.083Z,30.30
2024-02-15T10:28:03.931Z,30.35
2024-02-15T10:31:09.369Z,36.20
2024-02-15T10:34:15.416Z,35.55
2024-02-15T10:37:18.411Z,34.35
2024-02-15T10:40:21.906Z,33.00
2024-02-15T10:43:24.183Z,33.55
2024-02-15T10:46:26.897Z,33.08
2024-02-15T10:49:29.328Z,31.25
2024-02-15T10:52:33.440Z,37.33
2024-02-15T10:55:41.742Z,31.17
2024-02-15T10:58:50.689Z,35.97
2024-02-15T11:01:59.878Z,42.45
2024-02-15T11:05:13.154Z,30.23
2024-02-15T11:08:18.067Z,36.15
2024-02-15T11:11:21.677Z,36.13
2024-02-15T11:14:27.222Z,32.22
2024-02-15T11:17:58.666Z,34.67
2024-02-15T11:21:01.472Z,29.02
2024-02-15T11:24:29.025Z,33.17
2024-02-15T11:27:33.008Z,33.95
2024-02-15T11:30:35.720Z,32.85
2024-02-15T11:33:38.325Z,35.95
2024-02-15T11:36:43.898Z,35.08
2024-02-15T11:39:48.094Z,30.33
2024-02-15T11:42:54.395Z,26.10
2024-02-15T11:45:59.986Z,30.10
2024-02-15T11:49:04.840Z,29.85
2024-02-15T11:52:12.436Z,26.00
2024-02-15T11:55:20.277Z,27.55
2024-02-15T11:58:30.114Z,27.30
2024-02-15T12:01:52.654Z,30.92
2024-02-15T12:05:13.965Z,32.83
2024-02-15T12:08:34.959Z,29.95
2024-02-15T12:11:56.548Z,26.48
2024-02-15T12:15:19.143Z,36.50
2024-02-15T12:18:44.423Z,33.42
2024-02-15T12:21:48.092Z,30.83
2024-02-15T12:25:01.465Z,28.95
2024-02-15T12:28:05.478Z,30.90
2024-02-15T12:31:15.162Z,28.67
2024-02-15T12:34:21.867Z,28.62
2024-02-15T12:37:24.849Z,24.50
2024-02-15T12:40:35.108Z,26.50
2024-02-15T12:43:38.169Z,24.98
2024-02-15T12:46:41.365Z,18.75
2024-02-15T12:49:43.858Z,20.92
2024-02-15T12:52:50.756Z,20.23
2024-02-15T12:55:55.959Z,18.87
2024-02-15T12:58:58.059Z,18.33
2024-02-15T13:02:00.615Z,23.35
2024-02-15T13:05:04.127Z,20.48
2024-02-15T13:08:11.507Z,17.95
2024-02-15T13:11:14.314Z,27.00
2024-02-15T13:14:16.925Z,19.17
2024-02-15T13:17:19.113Z,22.80
2024-02-15T13:20:36.677Z,23.87
2024-02-15T13:23:40.216Z,21.77
2024-02-15T13:26:42.805Z,26.80
2024-02-15T13:29:46.967Z,28.23
2024-02-15T13:32:50.106Z,22.13
2024-02-15T13:35:52.400Z,24.23
2024-02-15T13:38:57.067Z,26.33
2024-02-15T13:41:59.570Z,28.45
2024-02-15T13:45:03.095Z,29.98
2024-02-15T13:48:06.442Z,25.30
2024-02-15T13:51:10.342Z,26.08
2024-02-15T13:54:12.857Z,26.23
2024-02-15T13:57:15.975Z,31.85
2024-02-15T14:00:23.075Z,25.83
2024-02-15T14:03:26.470Z,24.45
2024-02-15T14:06:29.312Z,22.70
2024-02-15T14:09:31.893Z,23.02
2024-02-15T14:12:35.403Z,22.50
2024-02-15T14:15:39.310Z,27.25
2024-02-15T14:18:45.923Z,24.08
2024-02-15T14:21:48.674Z,25.08
2024-02-15T14:24:52.457Z,21.87
2024-02-15T14:27:55.769Z,24.20
2024-02-15T14:31:16.436Z,24.10
2024-02-15T14:34:19.062Z,26.40
2024-02-15T14:37:23.420Z,24.45
2024-02-15T14:40:27.502Z,22.62
2024-02-15T14:43:30.361Z,26.77
2024-02-15T14:46:36.563Z,27.35
2024-02-15T14:49:38.735Z,28.70
2024-02-15T14:52:41.270Z,28.65
2024-02-15T14:55:50.187Z,28.08
2024-02-15T14:58:52.919Z,30.25
2024-02-15T15:02:02.366Z,33.45
2024-02-15T15:05:24.595Z,30.52
2024-02-15T15:08:45.457Z,28.10
2024-02-15T15:12:06.330Z,26.80
2024-02-15T15:15:09.206Z,32.33
2024-02-15T15:18:12.390Z,33.38
2024-02-15T15:21:17.174Z,26.20
2024-02-15T15:24:19.736Z,30.80
2024-02-15T15:27:21.933Z,28.95
2024-02-15T15:30:24.414Z,29.52
2024-02-15T15:33:26.639Z,26.58
2024-02-15T15:36:29.274Z,29.08
2024-02-15T15:39:34.207Z,29.95
2024-02-15T15:42:36.793Z,30.65
2024-02-15T15:45:38.946Z,29.08
2024-02-15T15:48:41.589Z,26.60
2024-02-15T15:51:44.772Z,28.65
2024-02-15T15:54:48.073Z,30.80
2024-02-15T15:57:50.931Z,30.83
2024-02-15T16:00:53.403Z,30.65
2024-02-15T16:03:56.142Z,29.42
2024-02-15T16:06:58.373Z,33.58
2024-02-15T16:10:00.811Z,30.98
2024-02-15T16:13:03.122Z,31.52
2024-02-15T16:16:06.768Z,34.03
2024-02-15T16:19:09.020Z,33.03
2024-02-15T16:22:11.713Z,31.33
2024-02-15T16:25:14.579Z,33.95
2024-02-15T16:28:17.164Z,32.80
2024-02-15T16:31:19.322Z,31.15
2024-02-15T16:34:22.024Z,30.85
2024-02-15T16:37:27.399Z,31.58
2024-02-15T16:40:29.857Z,37.05
2024-02-15T16:43:32.465Z,32.50
2024-02-15T16:46:35.102Z,30.77
2024-02-15T16:49:38.126Z,36.88
2024-02-15T16:52:43.587Z,38.13
2024-02-15T16:55:47.192Z,40.12
2024-02-15T16:58:50.042Z,38.97
2024-02-15T17:01:53.982Z,36.50
2024-02-15T17:04:56.541Z,38.28
2024-02-15T17:07:59.434Z,32.95
2024-02-15T17:11:01.947Z,33.67
2024-02-15T17:14:04.461Z,34.22
2024-02-15T17:17:07.172Z,31.60
2024-02-15T17:20:16.181Z,35.92
2024-02-15T17:23:18.731Z,32.92
